sensor_id;sensor_type;location;lat;lon;timestamp;P1;durP1;ratioP1;P2;durP2;ratioP2
3922;SDS011;1976;51.694;6.256;2022-12-07T00:01:09;15.80;;;9.80;;
3922;SDS011;1976;51.694;6.256;2022-12-07T00:03:39;26.30;;;10.40;;
3922;SDS011;1976;51.694;6.256;2022-12-07T00:06:07;13.80;;;10.73;;
3922;SDS011;1976;51.694;6.256;2022-12-07T00:08:35;16.83;;;10.27;;
3922;SDS011;1976;51.694;6.256;2022-12-07T00:11:08;13.23;;;10.40;;
3922;SDS011;1976;51.694;6.256;2022-12-07T00:13:42;22.50;;;10.53;;
3922;SDS011;1976;51.694;6.256;2022-12-07T00:16:09;14.07;;;9.83;;
3922;SDS011;1976;51.694;6.256;2022-12-07T00:18:37;14.10;;;10.43;;
3922;SDS011;1976;51.694;6.256;2022-12-07T00:21:04;16.13;;;9.53;;
3922;SDS011;1976;51.694;6.256;2022-12-07T00:23:31;17.47;;;10.10;;
3922;SDS011;1976;51.694;6.256;2022-12-07T00:26:08;14.90;;;10.53;;
3922;SDS011;1976;51.694;6.256;2022-12-07T00:28:40;20.27;;;10.03;;
3922;SDS011;1976;51.694;6.256;2022-12-07T00:31:10;15.93;;;9.90;;
3922;SDS011;1976;51.694;6.256;2022-12-07T00:33:37;12.53;;;9.20;;
3922;SDS011;1976;51.694;6.256;2022-12-07T00:36:04;26.93;;;11.07;;
3922;SDS011;1976;51.694;6.256;2022-12-07T00:38:34;14.00;;;10.30;;
3922;SDS011;1976;51.694;6.256;2022-12-07T00:41:01;12.03;;;9.83;;
3922;SDS011;1976;51.694;6.256;2022-12-07T00:43:29;13.47;;;9.33;;
3922;SDS011;1976;51.694;6.256;2022-12-07T00:45:55;13.00;;;9.00;;
3922;SDS011;1976;51.694;6.256;2022-12-07T00:48:21;15.93;;;10.50;;
3922;SDS011;1976;51.694;6.256;2022-12-07T00:50:47;14.27;;;9.87;;
3922;SDS011;1976;51.694;6.256;2022-12-07T00:53:13;14.63;;;10.10;;
3922;SDS011;1976;51.694;6.256;2022-12-07T00:55:40;14.17;;;10.27;;
3922;SDS011;1976;51.694;6.256;2022-12-07T00:58:06;12.20;;;9.63;;
3922;SDS011;1976;51.694;6.256;2022-12-07T01:00:32;15.83;;;10.03;;
3922;SDS011;1976;51.694;6.256;2022-12-07T01:02:59;15.53;;;10.63;;
3922;SDS011;1976;51.694;6.256;2022-12-07T01:05:25;14.40;;;8.93;;
3922;SDS011;1976;51.694;6.256;2022-12-07T01:07:50;11.93;;;7.20;;
3922;SDS011;1976;51.694;6.256;2022-12-07T01:10:16;12.73;;;9.40;;
3922;SDS011;1976;51.694;6.256;2022-12-07T01:12:42;10.70;;;8.60;;
3922;SDS011;1976;51.694;6.256;2022-12-07T01:15:08;17.70;;;11.10;;
3922;SDS011;1976;51.694;6.256;2022-12-07T01:17:33;15.03;;;10.33;;
3922;SDS011;1976;51.694;6.256;2022-12-07T01:20:00;20.00;;;11.77;;
3922;SDS011;1976;51.694;6.256;2022-12-07T01:22:26;17.90;;;9.80;;
3922;SDS011;1976;51.694;6.256;2022-12-07T01:24:52;20.70;;;10.90;;
3922;SDS011;1976;51.694;6.256;2022-12-07T01:27:18;11.53;;;8.70;;
3922;SDS011;1976;51.694;6.256;2022-12-07T01:29:43;15.83;;;10.50;;
3922;SDS011;1976;51.694;6.256;2022-12-07T01:32:09;13.37;;;9.63;;
3922;SDS011;1976;51.694;6.256;2022-12-07T01:34:35;10.50;;;9.10;;
3922;SDS011;1976;51.694;6.256;2022-12-07T01:37:01;13.23;;;9.67;;
3922;SDS011;1976;51.694;6.256;2022-12-07T01:39:28;17.27;;;10.50;;
3922;SDS011;1976;51.694;6.256;2022-12-07T01:41:53;17.83;;;11.20;;
3922;SDS011;1976;51.694;6.256;2022-12-07T01:44:23;14.13;;;10.83;;
3922;SDS011;1976;51.694;6.256;2022-12-07T01:47:00;14.23;;;9.03;;
3922;SDS011;1976;51.694;6.256;2022-12-07T01:52:04;12.60;;;8.27;;
3922;SDS011;1976;51.694;6.256;2022-12-07T01:54:32;18.73;;;10.10;;
3922;SDS011;1976;51.694;6.256;2022-12-07T01:56:59;16.10;;;8.00;;
3922;SDS011;1976;51.694;6.256;2022-12-07T01:59:25;16.23;;;10.17;;
3922;SDS011;1976;51.694;6.256;2022-12-07T02:01:52;11.17;;;8.83;;
3922;SDS011;1976;51.694;6.256;2022-12-07T02:04:19;14.23;;;9.23;;
3922;SDS011;1976;51.694;6.256;2022-12-07T02:06:46;13.80;;;9.20;;
3922;SDS011;1976;51.694;6.256;2022-12-07T02:09:12;14.60;;;9.87;;
3922;SDS011;1976;51.694;6.256;2022-12-07T02:11:38;9.87;;;8.87;;
3922;SDS011;1976;51.694;6.256;2022-12-07T02:14:04;13.73;;;9.57;;
3922;SDS011;1976;51.694;6.256;2022-12-07T02:22:18;15.33;;;9.37;;
3922;SDS011;1976;51.694;6.256;2022-12-07T02:25:16;14.27;;;9.80;;
3922;SDS011;1976;51.694;6.256;2022-12-07T02:27:55;17.70;;;9.20;;
3922;SDS011;1976;51.694;6.256;2022-12-07T02:30:29;31.17;;;9.83;;
3922;SDS011;1976;51.694;6.256;2022-12-07T02:33:06;26.70;;;8.90;;
3922;SDS011;1976;51.694;6.256;2022-12-07T02:38:50;29.20;;;9.57;;
3922;SDS011;1976;51.694;6.256;2022-12-07T02:44:00;45.93;;;9.63;;
3922;SDS011;1976;51.694;6.256;2022-12-07T02:46:30;20.50;;;7.87;;
3922;SDS011;1976;51.694;6.256;2022-12-07T02:49:00;37.17;;;9.90;;
3922;SDS011;1976;51.694;6.256;2022-12-07T02:51:29;27.40;;;9.13;;
3922;SDS011;1976;51.694;6.256;2022-12-07T02:53:56;30.10;;;11.07;;
3922;SDS011;1976;51.694;6.256;2022-12-07T02:59:07;25.60;;;9.60;;
3922;SDS011;1976;51.694;6.256;2022-12-07T03:06:49;23.70;;;13.80;;
3922;SDS011;1976;51.694;6.256;2022-12-07T03:09:24;19.57;;;12.20;;
3922;SDS011;1976;51.694;6.256;2022-12-07T03:12:01;16.07;;;10.33;;
3922;SDS011;1976;51.694;6.256;2022-12-07T03:14:38;18.47;;;11.00;;
3922;SDS011;1976;51.694;6.256;2022-12-07T03:17:16;16.83;;;10.00;;
3922;SDS011;1976;51.694;6.256;2022-12-07T03:19:48;19.90;;;10.23;;
3922;SDS011;1976;51.694;6.256;2022-12-07T03:22:16;23.60;;;10.87;;
3922;SDS011;1976;51.694;6.256;2022-12-07T03:27:21;25.40;;;10.20;;
3922;SDS011;1976;51.694;6.256;2022-12-07T03:30:05;13.60;;;8.37;;
3922;SDS011;1976;51.694;6.256;2022-12-07T03:32:38;26.63;;;10.33;;
3922;SDS011;1976;51.694;6.256;2022-12-07T03:35:13;17.23;;;10.30;;
3922;SDS011;1976;51.694;6.256;2022-12-07T03:37:53;32.97;;;9.90;;
3922;SDS011;1976;51.694;6.256;2022-12-07T03:42:58;33.13;;;10.90;;
3922;SDS011;1976;51.694;6.256;2022-12-07T03:45:30;15.57;;;9.80;;
3922;SDS011;1976;51.694;6.256;2022-12-07T03:50:47;15.00;;;10.83;;
3922;SDS011;1976;51.694;6.256;2022-12-07T03:53:22;16.70;;;11.00;;
3922;SDS011;1976;51.694;6.256;2022-12-07T03:55:55;25.93;;;10.27;;
3922;SDS011;1976;51.694;6.256;2022-12-07T03:58:23;16.10;;;11.23;;
3922;SDS011;1976;51.694;6.256;2022-12-07T04:00:50;17.63;;;11.33;;
3922;SDS011;1976;51.694;6.256;2022-12-07T04:03:16;24.27;;;12.17;;
3922;SDS011;1976;51.694;6.256;2022-12-07T04:05:42;15.07;;;9.63;;
3922;SDS011;1976;51.694;6.256;2022-12-07T04:08:09;18.60;;;10.70;;
3922;SDS011;1976;51.694;6.256;2022-12-07T04:10:34;14.03;;;9.33;;
3922;SDS011;1976;51.694;6.256;2022-12-07T04:13:00;17.00;;;10.60;;
3922;SDS011;1976;51.694;6.256;2022-12-07T04:15:26;15.33;;;9.30;;
3922;SDS011;1976;51.694;6.256;2022-12-07T04:17:52;11.70;;;8.73;;
3922;SDS011;1976;51.694;6.256;2022-12-07T04:20:18;11.67;;;8.80;;
3922;SDS011;1976;51.694;6.256;2022-12-07T04:22:44;11.97;;;7.63;;
3922;SDS011;1976;51.694;6.256;2022-12-07T04:25:10;17.37;;;9.03;;
3922;SDS011;1976;51.694;6.256;2022-12-07T04:27:36;12.90;;;9.03;;
3922;SDS011;1976;51.694;6.256;2022-12-07T04:30:01;13.60;;;7.80;;
3922;SDS011;1976;51.694;6.256;2022-12-07T04:32:28;13.90;;;9.13;;
3922;SDS011;1976;51.694;6.256;2022-12-07T04:34:53;11.10;;;6.97;;
3922;SDS011;1976;51.694;6.256;2022-12-07T04:37:19;19.13;;;7.93;;
3922;SDS011;1976;51.694;6.256;2022-12-07T04:39:45;11.83;;;7.97;;
3922;SDS011;1976;51.694;6.256;2022-12-07T04:42:11;17.30;;;7.80;;
3922;SDS011;1976;51.694;6.256;2022-12-07T04:44:37;15.13;;;10.03;;
3922;SDS011;1976;51.694;6.256;2022-12-07T04:47:03;13.37;;;9.00;;
3922;SDS011;1976;51.694;6.256;2022-12-07T04:49:29;28.50;;;9.07;;
3922;SDS011;1976;51.694;6.256;2022-12-07T04:51:55;23.47;;;9.20;;
3922;SDS011;1976;51.694;6.256;2022-12-07T04:54:21;24.30;;;9.87;;
3922;SDS011;1976;51.694;6.256;2022-12-07T04:56:46;18.33;;;9.77;;
3922;SDS011;1976;51.694;6.256;2022-12-07T04:59:12;18.17;;;9.50;;
3922;SDS011;1976;51.694;6.256;2022-12-07T05:01:39;22.73;;;9.63;;
3922;SDS011;1976;51.694;6.256;2022-12-07T05:04:05;22.63;;;10.17;;
3922;SDS011;1976;51.694;6.256;2022-12-07T05:06:31;18.43;;;9.33;;
3922;SDS011;1976;51.694;6.256;2022-12-07T05:08:57;16.90;;;8.10;;
3922;SDS011;1976;51.694;6.256;2022-12-07T05:11:23;13.93;;;8.30;;
3922;SDS011;1976;51.694;6.256;2022-12-07T05:14:08;15.80;;;7.70;;
3922;SDS011;1976;51.694;6.256;2022-12-07T05:16:36;27.73;;;8.83;;
3922;SDS011;1976;51.694;6.256;2022-12-07T05:19:02;7.90;;;6.70;;
3922;SDS011;1976;51.694;6.256;2022-12-07T05:21:29;11.63;;;8.13;;
3922;SDS011;1976;51.694;6.256;2022-12-07T05:23:54;16.03;;;7.13;;
3922;SDS011;1976;51.694;6.256;2022-12-07T05:26:20;16.87;;;7.80;;
3922;SDS011;1976;51.694;6.256;2022-12-07T05:28:49;17.30;;;6.83;;
3922;SDS011;1976;51.694;6.256;2022-12-07T05:31:16;12.67;;;6.80;;
3922;SDS011;1976;51.694;6.256;2022-12-07T05:33:42;10.80;;;8.13;;
3922;SDS011;1976;51.694;6.256;2022-12-07T05:36:07;10.37;;;7.50;;
3922;SDS011;1976;51.694;6.256;2022-12-07T05:38:33;14.97;;;7.37;;
3922;SDS011;1976;51.694;6.256;2022-12-07T05:41:02;10.20;;;7.10;;
3922;SDS011;1976;51.694;6.256;2022-12-07T05:43:29;22.47;;;7.43;;
3922;SDS011;1976;51.694;6.256;2022-12-07T05:45:54;11.53;;;6.13;;
3922;SDS011;1976;51.694;6.256;2022-12-07T05:48:20;12.50;;;7.17;;
3922;SDS011;1976;51.694;6.256;2022-12-07T05:50:49;9.00;;;6.30;;
3922;SDS011;1976;51.694;6.256;2022-12-07T05:53:16;20.47;;;5.90;;
3922;SDS011;1976;51.694;6.256;2022-12-07T05:55:42;17.73;;;6.87;;
3922;SDS011;1976;51.694;6.256;2022-12-07T05:58:08;15.37;;;6.40;;
3922;SDS011;1976;51.694;6.256;2022-12-07T06:00:54;14.40;;;8.30;;
3922;SDS011;1976;51.694;6.256;2022-12-07T06:03:20;16.30;;;7.47;;
3922;SDS011;1976;51.694;6.256;2022-12-07T06:05:45;26.03;;;9.40;;
3922;SDS011;1976;51.694;6.256;2022-12-07T06:08:11;14.53;;;9.37;;
3922;SDS011;1976;51.694;6.256;2022-12-07T06:10:37;15.43;;;8.97;;
3922;SDS011;1976;51.694;6.256;2022-12-07T06:13:02;18.93;;;9.47;;
3922;SDS011;1976;51.694;6.256;2022-12-07T06:15:28;17.40;;;7.90;;
3922;SDS011;1976;51.694;6.256;2022-12-07T06:17:53;16.60;;;8.30;;
3922;SDS011;1976;51.694;6.256;2022-12-07T06:20:19;20.40;;;8.80;;
3922;SDS011;1976;51.694;6.256;2022-12-07T06:22:45;21.77;;;8.67;;
3922;SDS011;1976;51.694;6.256;2022-12-07T06:25:10;22.10;;;8.70;;
3922;SDS011;1976;51.694;6.256;2022-12-07T06:27:36;17.00;;;10.10;;
3922;SDS011;1976;51.694;6.256;2022-12-07T06:30:02;29.10;;;9.57;;
3922;SDS011;1976;51.694;6.256;2022-12-07T06:32:31;12.87;;;8.97;;
3922;SDS011;1976;51.694;6.256;2022-12-07T06:34:58;10.63;;;7.43;;
3922;SDS011;1976;51.694;6.256;2022-12-07T06:37:24;21.27;;;7.57;;
3922;SDS011;1976;51.694;6.256;2022-12-07T06:39:50;13.83;;;6.83;;
3922;SDS011;1976;51.694;6.256;2022-12-07T06:42:15;10.23;;;6.63;;
3922;SDS011;1976;51.694;6.256;2022-12-07T06:44:41;6.07;;;5.30;;
3922;SDS011;1976;51.694;6.256;2022-12-07T06:47:06;9.43;;;5.43;;
3922;SDS011;1976;51.694;6.256;2022-12-07T06:49:34;11.03;;;5.00;;
3922;SDS011;1976;51.694;6.256;2022-12-07T06:52:00;10.27;;;5.40;;
3922;SDS011;1976;51.694;6.256;2022-12-07T06:54:25;11.57;;;4.90;;
3922;SDS011;1976;51.694;6.256;2022-12-07T06:56:51;6.77;;;4.73;;
3922;SDS011;1976;51.694;6.256;2022-12-07T06:59:17;12.50;;;4.80;;
3922;SDS011;1976;51.694;6.256;2022-12-07T07:01:42;14.13;;;5.20;;
3922;SDS011;1976;51.694;6.256;2022-12-07T07:04:08;4.43;;;3.57;;
3922;SDS011;1976;51.694;6.256;2022-12-07T07:06:33;6.90;;;3.70;;
3922;SDS011;1976;51.694;6.256;2022-12-07T07:08:59;14.73;;;5.50;;
3922;SDS011;1976;51.694;6.256;2022-12-07T07:11:25;11.43;;;4.67;;
3922;SDS011;1976;51.694;6.256;2022-12-07T07:13:50;8.40;;;5.53;;
3922;SDS011;1976;51.694;6.256;2022-12-07T07:16:16;19.23;;;5.93;;
3922;SDS011;1976;51.694;6.256;2022-12-07T07:18:42;17.47;;;5.70;;
3922;SDS011;1976;51.694;6.256;2022-12-07T07:21:07;7.40;;;5.17;;
3922;SDS011;1976;51.694;6.256;2022-12-07T07:23:33;10.23;;;6.00;;
3922;SDS011;1976;51.694;6.256;2022-12-07T07:25:59;13.50;;;4.93;;
3922;SDS011;1976;51.694;6.256;2022-12-07T07:28:24;18.57;;;6.83;;
3922;SDS011;1976;51.694;6.256;2022-12-07T07:30:50;14.10;;;5.63;;
3922;SDS011;1976;51.694;6.256;2022-12-07T07:33:16;11.57;;;5.50;;
3922;SDS011;1976;51.694;6.256;2022-12-07T07:35:41;15.60;;;5.30;;
3922;SDS011;1976;51.694;6.256;2022-12-07T07:38:07;12.70;;;5.90;;
3922;SDS011;1976;51.694;6.256;2022-12-07T07:40:33;12.13;;;4.70;;
3922;SDS011;1976;51.694;6.256;2022-12-07T07:43:00;10.90;;;4.20;;
3922;SDS011;1976;51.694;6.256;2022-12-07T07:45:26;13.60;;;5.50;;
3922;SDS011;1976;51.694;6.256;2022-12-07T07:47:52;15.83;;;5.37;;
3922;SDS011;1976;51.694;6.256;2022-12-07T07:50:18;12.33;;;5.33;;
3922;SDS011;1976;51.694;6.256;2022-12-07T07:52:44;10.53;;;4.90;;
3922;SDS011;1976;51.694;6.256;2022-12-07T07:55:10;7.93;;;4.83;;
3922;SDS011;1976;51.694;6.256;2022-12-07T07:57:36;8.47;;;4.60;;
3922;SDS011;1976;51.694;6.256;2022-12-07T08:00:06;9.67;;;5.00;;
3922;SDS011;1976;51.694;6.256;2022-12-07T08:02:33;9.40;;;5.70;;
3922;SDS011;1976;51.694;6.256;2022-12-07T08:04:59;10.80;;;4.90;;
3922;SDS011;1976;51.694;6.256;2022-12-07T08:07:25;13.83;;;7.00;;
3922;SDS011;1976;51.694;6.256;2022-12-07T08:09:52;10.30;;;6.13;;
3922;SDS011;1976;51.694;6.256;2022-12-07T08:12:18;10.33;;;6.47;;
3922;SDS011;1976;51.694;6.256;2022-12-07T08:14:44;16.00;;;8.60;;
3922;SDS011;1976;51.694;6.256;2022-12-07T08:17:10;16.93;;;10.13;;
3922;SDS011;1976;51.694;6.256;2022-12-07T08:19:36;27.10;;;11.97;;
3922;SDS011;1976;51.694;6.256;2022-12-07T08:22:01;17.80;;;9.17;;
3922;SDS011;1976;51.694;6.256;2022-12-07T08:24:27;11.30;;;7.00;;
3922;SDS011;1976;51.694;6.256;2022-12-07T08:26:53;18.27;;;5.80;;
3922;SDS011;1976;51.694;6.256;2022-12-07T08:29:19;16.07;;;7.50;;
3922;SDS011;1976;51.694;6.256;2022-12-07T08:31:44;8.97;;;5.93;;
3922;SDS011;1976;51.694;6.256;2022-12-07T08:34:11;18.53;;;6.87;;
3922;SDS011;1976;51.694;6.256;2022-12-07T08:36:37;13.33;;;6.43;;
3922;SDS011;1976;51.694;6.256;2022-12-07T08:39:02;14.57;;;6.53;;
3922;SDS011;1976;51.694;6.256;2022-12-07T08:41:28;8.33;;;4.90;;
3922;SDS011;1976;51.694;6.256;2022-12-07T08:43:54;14.03;;;6.63;;
3922;SDS011;1976;51.694;6.256;2022-12-07T08:48:56;11.70;;;5.60;;
3922;SDS011;1976;51.694;6.256;2022-12-07T08:51:26;18.27;;;6.50;;
3922;SDS011;1976;51.694;6.256;2022-12-07T08:53:53;16.23;;;6.97;;
3922;SDS011;1976;51.694;6.256;2022-12-07T08:56:20;18.73;;;6.17;;
3922;SDS011;1976;51.694;6.256;2022-12-07T08:58:46;15.43;;;6.97;;
3922;SDS011;1976;51.694;6.256;2022-12-07T09:01:13;22.43;;;6.20;;
3922;SDS011;1976;51.694;6.256;2022-12-07T09:03:39;11.77;;;5.77;;
3922;SDS011;1976;51.694;6.256;2022-12-07T09:06:05;8.13;;;5.10;;
3922;SDS011;1976;51.694;6.256;2022-12-07T09:08:37;12.57;;;4.73;;
3922;SDS011;1976;51.694;6.256;2022-12-07T09:11:07;9.23;;;4.80;;
3922;SDS011;1976;51.694;6.256;2022-12-07T09:13:33;10.10;;;4.30;;
3922;SDS011;1976;51.694;6.256;2022-12-07T09:15:58;10.17;;;5.00;;
3922;SDS011;1976;51.694;6.256;2022-12-07T09:18:24;8.93;;;4.63;;
3922;SDS011;1976;51.694;6.256;2022-12-07T09:20:50;9.47;;;3.33;;
3922;SDS011;1976;51.694;6.256;2022-12-07T09:23:16;12.60;;;4.67;;
3922;SDS011;1976;51.694;6.256;2022-12-07T09:25:41;10.50;;;4.70;;
3922;SDS011;1976;51.694;6.256;2022-12-07T09:28:07;9.50;;;4.13;;
3922;SDS011;1976;51.694;6.256;2022-12-07T09:30:33;8.80;;;4.73;;
3922;SDS011;1976;51.694;6.256;2022-12-07T09:32:59;8.13;;;5.03;;
3922;SDS011;1976;51.694;6.256;2022-12-07T09:35:25;7.43;;;3.90;;
3922;SDS011;1976;51.694;6.256;2022-12-07T09:37:51;8.50;;;4.07;;
3922;SDS011;1976;51.694;6.256;2022-12-07T09:40:17;11.90;;;4.20;;
3922;SDS011;1976;51.694;6.256;2022-12-07T09:42:47;9.37;;;3.90;;
3922;SDS011;1976;51.694;6.256;2022-12-07T09:45:15;5.27;;;3.23;;
3922;SDS011;1976;51.694;6.256;2022-12-07T09:47:46;7.67;;;2.83;;
3922;SDS011;1976;51.694;6.256;2022-12-07T09:50:13;5.97;;;3.77;;
3922;SDS011;1976;51.694;6.256;2022-12-07T09:52:47;4.97;;;2.70;;
3922;SDS011;1976;51.694;6.256;2022-12-07T09:55:15;5.17;;;3.13;;
3922;SDS011;1976;51.694;6.256;2022-12-07T09:57:45;10.30;;;3.00;;
3922;SDS011;1976;51.694;6.256;2022-12-07T10:00:20;7.73;;;3.60;;
3922;SDS011;1976;51.694;6.256;2022-12-07T10:02:57;7.53;;;3.57;;
3922;SDS011;1976;51.694;6.256;2022-12-07T10:05:39;14.03;;;4.27;;
3922;SDS011;1976;51.694;6.256;2022-12-07T10:08:08;7.10;;;2.77;;
3922;SDS011;1976;51.694;6.256;2022-12-07T10:10:39;3.87;;;2.73;;
3922;SDS011;1976;51.694;6.256;2022-12-07T10:13:10;8.93;;;2.80;;
3922;SDS011;1976;51.694;6.256;2022-12-07T10:18:13;6.70;;;2.57;;
3922;SDS011;1976;51.694;6.256;2022-12-07T10:20:44;12.00;;;2.63;;
3922;SDS011;1976;51.694;6.256;2022-12-07T10:23:15;6.97;;;3.13;;
3922;SDS011;1976;51.694;6.256;2022-12-07T10:25:42;7.30;;;3.50;;
3922;SDS011;1976;51.694;6.256;2022-12-07T10:31:15;5.43;;;3.20;;
3922;SDS011;1976;51.694;6.256;2022-12-07T10:33:52;12.63;;;4.93;;
3922;SDS011;1976;51.694;6.256;2022-12-07T10:36:40;11.30;;;4.97;;
3922;SDS011;1976;51.694;6.256;2022-12-07T10:42:40;7.83;;;2.87;;
3922;SDS011;1976;51.694;6.256;2022-12-07T10:55:49;3.17;;;2.00;;
3922;SDS011;1976;51.694;6.256;2022-12-07T11:03:45;5.20;;;2.47;;
3922;SDS011;1976;51.694;6.256;2022-12-07T11:09:50;10.43;;;3.07;;
3922;SDS011;1976;51.694;6.256;2022-12-07T11:15:33;4.17;;;2.20;;
3922;SDS011;1976;51.694;6.256;2022-12-07T11:18:44;3.17;;;2.47;;
3922;SDS011;1976;51.694;6.256;2022-12-07T11:26:18;4.00;;;2.43;;
3922;SDS011;1976;51.694;6.256;2022-12-07T11:37:35;2.40;;;1.57;;
3922;SDS011;1976;51.694;6.256;2022-12-07T11:40:04;6.10;;;1.97;;
3922;SDS011;1976;51.694;6.256;2022-12-07T11:42:41;4.57;;;2.27;;
3922;SDS011;1976;51.694;6.256;2022-12-07T11:45:15;2.57;;;2.37;;
3922;SDS011;1976;51.694;6.256;2022-12-07T11:47:47;7.57;;;2.73;;
3922;SDS011;1976;51.694;6.256;2022-12-07T12:03:44;3.80;;;2.27;;
3922;SDS011;1976;51.694;6.256;2022-12-07T12:06:11;3.40;;;2.13;;
3922;SDS011;1976;51.694;6.256;2022-12-07T12:08:39;11.77;;;2.07;;
3922;SDS011;1976;51.694;6.256;2022-12-07T12:11:19;3.30;;;1.80;;
3922;SDS011;1976;51.694;6.256;2022-12-07T12:16:50;12.70;;;2.30;;
3922;SDS011;1976;51.694;6.256;2022-12-07T12:19:27;5.83;;;2.00;;
3922;SDS011;1976;51.694;6.256;2022-12-07T12:22:00;9.07;;;2.50;;
3922;SDS011;1976;51.694;6.256;2022-12-07T12:24:39;4.40;;;2.10;;
3922;SDS011;1976;51.694;6.256;2022-12-07T12:27:14;5.43;;;2.23;;
3922;SDS011;1976;51.694;6.256;2022-12-07T12:29:51;9.93;;;2.07;;
3922;SDS011;1976;51.694;6.256;2022-12-07T12:32:20;4.73;;;2.43;;
3922;SDS011;1976;51.694;6.256;2022-12-07T12:34:59;10.50;;;3.33;;
3922;SDS011;1976;51.694;6.256;2022-12-07T12:42:47;5.43;;;3.00;;
3922;SDS011;1976;51.694;6.256;2022-12-07T12:52:53;11.50;;;4.10;;
3922;SDS011;1976;51.694;6.256;2022-12-07T12:55:26;6.37;;;3.27;;
3922;SDS011;1976;51.694;6.256;2022-12-07T12:58:29;2.93;;;2.70;;
3922;SDS011;1976;51.694;6.256;2022-12-07T13:04:00;9.27;;;2.70;;
3922;SDS011;1976;51.694;6.256;2022-12-07T13:08:53;9.57;;;4.50;;
3922;SDS011;1976;51.694;6.256;2022-12-07T13:11:35;8.73;;;4.60;;
3922;SDS011;1976;51.694;6.256;2022-12-07T13:20:06;7.77;;;3.67;;
3922;SDS011;1976;51.694;6.256;2022-12-07T13:27:32;9.93;;;2.33;;
3922;SDS011;1976;51.694;6.256;2022-12-07T13:29:59;9.50;;;2.10;;
3922;SDS011;1976;51.694;6.256;2022-12-07T13:32:26;13.77;;;2.60;;
3922;SDS011;1976;51.694;6.256;2022-12-07T13:34:53;5.57;;;2.27;;
3922;SDS011;1976;51.694;6.256;2022-12-07T13:39:53;4.73;;;2.20;;
3922;SDS011;1976;51.694;6.256;2022-12-07T13:42:25;6.43;;;3.40;;
3922;SDS011;1976;51.694;6.256;2022-12-07T13:44:52;4.07;;;2.93;;
3922;SDS011;1976;51.694;6.256;2022-12-07T13:53:00;8.40;;;3.50;;
3922;SDS011;1976;51.694;6.256;2022-12-07T13:55:28;7.77;;;3.00;;
3922;SDS011;1976;51.694;6.256;2022-12-07T13:57:54;13.53;;;3.33;;
3922;SDS011;1976;51.694;6.256;2022-12-07T14:00:21;4.00;;;2.70;;
3922;SDS011;1976;51.694;6.256;2022-12-07T14:06:02;7.37;;;2.67;;
3922;SDS011;1976;51.694;6.256;2022-12-07T14:08:34;5.27;;;3.03;;
3922;SDS011;1976;51.694;6.256;2022-12-07T14:10:59;8.70;;;3.40;;
3922;SDS011;1976;51.694;6.256;2022-12-07T14:13:30;3.77;;;2.43;;
3922;SDS011;1976;51.694;6.256;2022-12-07T14:16:05;7.20;;;2.90;;
3922;SDS011;1976;51.694;6.256;2022-12-07T14:18:48;6.03;;;3.13;;
3922;SDS011;1976;51.694;6.256;2022-12-07T14:21:18;7.03;;;3.30;;
3922;SDS011;1976;51.694;6.256;2022-12-07T14:23:45;18.70;;;4.27;;
3922;SDS011;1976;51.694;6.256;2022-12-07T14:26:27;6.70;;;2.93;;
3922;SDS011;1976;51.694;6.256;2022-12-07T14:28:52;5.03;;;2.90;;
3922;SDS011;1976;51.694;6.256;2022-12-07T14:31:38;6.60;;;3.30;;
3922;SDS011;1976;51.694;6.256;2022-12-07T14:34:03;8.70;;;3.00;;
3922;SDS011;1976;51.694;6.256;2022-12-07T14:36:29;2.60;;;2.30;;
3922;SDS011;1976;51.694;6.256;2022-12-07T14:38:54;3.33;;;1.70;;
3922;SDS011;1976;51.694;6.256;2022-12-07T14:41:23;3.33;;;1.70;;
3922;SDS011;1976;51.694;6.256;2022-12-07T14:44:09;10.73;;;2.47;;
3922;SDS011;1976;51.694;6.256;2022-12-07T14:46:36;2.37;;;1.87;;
3922;SDS011;1976;51.694;6.256;2022-12-07T14:49:02;6.90;;;2.30;;
3922;SDS011;1976;51.694;6.256;2022-12-07T14:51:27;2.17;;;1.83;;
3922;SDS011;1976;51.694;6.256;2022-12-07T14:53:53;8.47;;;2.00;;
3922;SDS011;1976;51.694;6.256;2022-12-07T14:56:19;7.30;;;3.23;;
3922;SDS011;1976;51.694;6.256;2022-12-07T14:58:45;5.73;;;2.33;;
3922;SDS011;1976;51.694;6.256;2022-12-07T15:01:13;7.47;;;2.47;;
3922;SDS011;1976;51.694;6.256;2022-12-07T15:03:39;6.37;;;3.27;;
3922;SDS011;1976;51.694;6.256;2022-12-07T15:06:05;7.53;;;3.17;;
3922;SDS011;1976;51.694;6.256;2022-12-07T15:08:31;15.03;;;3.40;;
3922;SDS011;1976;51.694;6.256;2022-12-07T15:10:57;3.83;;;2.40;;
3922;SDS011;1976;51.694;6.256;2022-12-07T15:13:23;4.90;;;2.80;;
3922;SDS011;1976;51.694;6.256;2022-12-07T15:16:08;4.40;;;2.60;;
3922;SDS011;1976;51.694;6.256;2022-12-07T15:18:37;10.53;;;3.73;;
3922;SDS011;1976;51.694;6.256;2022-12-07T15:21:04;4.93;;;3.20;;
3922;SDS011;1976;51.694;6.256;2022-12-07T15:23:30;5.40;;;4.20;;
3922;SDS011;1976;51.694;6.256;2022-12-07T15:25:56;7.50;;;4.50;;
3922;SDS011;1976;51.694;6.256;2022-12-07T15:28:22;4.43;;;3.63;;
3922;SDS011;1976;51.694;6.256;2022-12-07T15:30:47;7.60;;;4.47;;
3922;SDS011;1976;51.694;6.256;2022-12-07T15:33:13;8.20;;;4.47;;
3922;SDS011;1976;51.694;6.256;2022-12-07T15:35:42;6.60;;;2.90;;
3922;SDS011;1976;51.694;6.256;2022-12-07T15:38:09;3.30;;;2.37;;
3922;SDS011;1976;51.694;6.256;2022-12-07T15:40:35;4.13;;;1.90;;
3922;SDS011;1976;51.694;6.256;2022-12-07T15:43:01;3.60;;;1.87;;
3922;SDS011;1976;51.694;6.256;2022-12-07T15:45:27;9.70;;;1.57;;
3922;SDS011;1976;51.694;6.256;2022-12-07T15:47:52;4.33;;;2.10;;
3922;SDS011;1976;51.694;6.256;2022-12-07T15:50:20;2.00;;;1.67;;
3922;SDS011;1976;51.694;6.256;2022-12-07T15:52:47;7.43;;;2.57;;
3922;SDS011;1976;51.694;6.256;2022-12-07T15:55:13;2.93;;;1.63;;
3922;SDS011;1976;51.694;6.256;2022-12-07T15:57:39;2.33;;;2.17;;
3922;SDS011;1976;51.694;6.256;2022-12-07T16:00:06;4.30;;;2.03;;
3922;SDS011;1976;51.694;6.256;2022-12-07T16:02:34;5.03;;;1.93;;
3922;SDS011;1976;51.694;6.256;2022-12-07T16:05:01;7.90;;;2.50;;
3922;SDS011;1976;51.694;6.256;2022-12-07T16:07:26;3.40;;;2.03;;
3922;SDS011;1976;51.694;6.256;2022-12-07T16:09:52;8.17;;;2.33;;
3922;SDS011;1976;51.694;6.256;2022-12-07T16:12:18;3.40;;;2.10;;
3922;SDS011;1976;51.694;6.256;2022-12-07T16:14:43;4.50;;;1.73;;
3922;SDS011;1976;51.694;6.256;2022-12-07T16:17:09;3.43;;;2.27;;
3922;SDS011;1976;51.694;6.256;2022-12-07T16:19:35;4.33;;;2.20;;
3922;SDS011;1976;51.694;6.256;2022-12-07T16:22:02;2.30;;;2.07;;
3922;SDS011;1976;51.694;6.256;2022-12-07T16:24:29;5.60;;;2.17;;
3922;SDS011;1976;51.694;6.256;2022-12-07T16:26:55;5.10;;;2.10;;
3922;SDS011;1976;51.694;6.256;2022-12-07T16:29:21;4.80;;;2.17;;
3922;SDS011;1976;51.694;6.256;2022-12-07T16:31:48;5.13;;;1.83;;
3922;SDS011;1976;51.694;6.256;2022-12-07T16:34:14;3.13;;;1.47;;
3922;SDS011;1976;51.694;6.256;2022-12-07T16:36:41;1.37;;;1.27;;
3922;SDS011;1976;51.694;6.256;2022-12-07T16:39:06;3.77;;;1.40;;
3922;SDS011;1976;51.694;6.256;2022-12-07T16:41:33;3.80;;;1.80;;
3922;SDS011;1976;51.694;6.256;2022-12-07T16:44:06;3.83;;;1.43;;
3922;SDS011;1976;51.694;6.256;2022-12-07T16:46:35;2.10;;;1.90;;
3922;SDS011;1976;51.694;6.256;2022-12-07T16:49:01;2.00;;;1.53;;
3922;SDS011;1976;51.694;6.256;2022-12-07T16:51:27;1.50;;;1.40;;
3922;SDS011;1976;51.694;6.256;2022-12-07T16:53:54;3.63;;;1.77;;
3922;SDS011;1976;51.694;6.256;2022-12-07T16:56:19;2.47;;;1.73;;
3922;SDS011;1976;51.694;6.256;2022-12-07T16:58:45;3.27;;;1.90;;
3922;SDS011;1976;51.694;6.256;2022-12-07T17:01:17;11.37;;;1.63;;
3922;SDS011;1976;51.694;6.256;2022-12-07T17:03:49;3.27;;;1.60;;
3922;SDS011;1976;51.694;6.256;2022-12-07T17:06:16;4.03;;;1.87;;
3922;SDS011;1976;51.694;6.256;2022-12-07T17:08:44;4.63;;;1.47;;
3922;SDS011;1976;51.694;6.256;2022-12-07T17:11:13;3.33;;;1.53;;
3922;SDS011;1976;51.694;6.256;2022-12-07T17:13:42;1.73;;;1.13;;
3922;SDS011;1976;51.694;6.256;2022-12-07T17:16:27;1.23;;;1.23;;
3922;SDS011;1976;51.694;6.256;2022-12-07T17:18:53;1.60;;;1.47;;
3922;SDS011;1976;51.694;6.256;2022-12-07T17:21:19;1.80;;;1.70;;
3922;SDS011;1976;51.694;6.256;2022-12-07T17:23:45;1.80;;;1.70;;
3922;SDS011;1976;51.694;6.256;2022-12-07T17:26:12;1.73;;;1.63;;
3922;SDS011;1976;51.694;6.256;2022-12-07T17:28:40;1.87;;;1.73;;